createdAt,value
2022-12-09T00:01:22.531Z,6.90
2022-12-09T00:04:08.803Z,6.90
2022-12-09T00:06:54.827Z,7.00
2022-12-09T00:09:40.367Z,7.00
2022-12-09T00:12:26.003Z,7.00
2022-12-09T00:15:11.925Z,7.00
2022-12-09T00:17:58.211Z,7.00
2022-12-09T00:20:44.073Z,7.00
2022-12-09T00:23:30.301Z,7.00
2022-12-09T00:26:16.663Z,6.90
2022-12-09T00:29:03.215Z,7.00
2022-12-09T00:31:48.991Z,7.00
2022-12-09T00:34:35.841Z,7.10
2022-12-09T00:37:21.821Z,7.00
2022-12-09T00:40:08.667Z,7.00
2022-12-09T00:42:54.639Z,7.00
2022-12-09T00:45:41.453Z,7.00
2022-12-09T00:48:28.786Z,7.10
2022-12-09T00:51:17.583Z,7.00
2022-12-09T00:54:04.105Z,7.00
2022-12-09T00:56:50.096Z,7.00
2022-12-09T00:59:36.003Z,7.00
2022-12-09T01:02:22.265Z,7.00
2022-12-09T01:05:08.608Z,7.00
2022-12-09T01:07:55.159Z,7.00
2022-12-09T01:10:42.667Z,7.00
2022-12-09T01:13:29.135Z,7.10
2022-12-09T01:16:26.700Z,7.00
2022-12-09T01:19:16.152Z,7.00
2022-12-09T01:22:02.027Z,7.00
2022-12-09T01:24:48.549Z,7.00
2022-12-09T01:27:34.440Z,7.00
2022-12-09T01:30:21.000Z,7.00
2022-12-09T01:33:07.668Z,6.90
2022-12-09T01:35:53.224Z,6.90
2022-12-09T01:38:39.123Z,7.00
2022-12-09T01:41:25.236Z,7.00
2022-12-09T01:44:19.593Z,7.00
2022-12-09T01:47:05.005Z,7.00
2022-12-09T01:49:53.228Z,7.00
2022-12-09T01:52:39.556Z,7.00
2022-12-09T01:55:26.478Z,7.00
2022-12-09T01:58:13.057Z,7.00
2022-12-09T02:01:00.241Z,7.00
2022-12-09T02:03:46.265Z,7.00
2022-12-09T02:06:35.342Z,7.00
2022-12-09T02:09:22.345Z,7.00
2022-12-09T02:12:50.251Z,7.00
2022-12-09T02:15:53.468Z,7.00
2022-12-09T02:19:05.789Z,7.00
2022-12-09T02:22:00.060Z,7.00
2022-12-09T02:25:06.913Z,7.00
2022-12-09T02:28:31.190Z,7.00
2022-12-09T02:31:50.399Z,7.00
2022-12-09T02:34:44.825Z,7.00
2022-12-09T02:37:44.209Z,7.00
2022-12-09T02:40:42.485Z,7.00
2022-12-09T02:43:34.992Z,7.00
2022-12-09T02:46:22.600Z,7.00
2022-12-09T02:49:09.357Z,7.00
2022-12-09T02:51:57.360Z,7.00
2022-12-09T02:54:45.177Z,7.00
2022-12-09T02:57:34.572Z,7.00
2022-12-09T03:00:21.701Z,7.00
2022-12-09T03:03:16.615Z,7.00
2022-12-09T03:06:09.674Z,7.00
2022-12-09T03:09:12.719Z,7.00
2022-12-09T03:12:05.764Z,7.00
2022-12-09T03:14:55.313Z,7.00
2022-12-09T03:17:45.360Z,7.00
2022-12-09T03:20:35.228Z,7.00
2022-12-09T03:23:25.720Z,7.00
2022-12-09T03:26:14.107Z,7.00
2022-12-09T03:29:03.032Z,7.00
2022-12-09T03:31:51.609Z,7.00
2022-12-09T03:34:40.775Z,7.00
2022-12-09T03:37:27.839Z,7.00
2022-12-09T03:40:18.790Z,7.00
2022-12-09T03:43:13.384Z,7.00
2022-12-09T03:46:00.097Z,7.00
2022-12-09T03:48:47.162Z,7.00
2022-12-09T03:51:43.221Z,7.00
2022-12-09T03:54:34.859Z,7.00
2022-12-09T03:57:23.219Z,7.00
2022-12-09T04:00:10.407Z,7.00
2022-12-09T04:02:59.734Z,6.90
2022-12-09T04:05:45.718Z,6.90
2022-12-09T04:08:31.252Z,6.90
2022-12-09T04:11:17.765Z,6.90
2022-12-09T04:14:04.331Z,7.00
2022-12-09T04:16:50.839Z,7.00
2022-12-09T04:19:36.990Z,7.00
2022-12-09T04:22:23.105Z,7.00
2022-12-09T04:25:10.382Z,7.00
2022-12-09T04:27:57.099Z,6.90
2022-12-09T04:30:47.148Z,6.90
2022-12-09T04:33:34.054Z,6.90
2022-12-09T04:36:21.360Z,6.90
2022-12-09T04:39:08.277Z,6.90
2022-12-09T04:41:54.387Z,6.80
2022-12-09T04:44:40.565Z,6.80
2022-12-09T04:47:27.050Z,6.80
2022-12-09T04:50:14.389Z,6.90
2022-12-09T04:53:00.522Z,6.90
2022-12-09T04:55:47.320Z,7.00
2022-12-09T04:58:33.721Z,7.00
2022-12-09T05:01:26.621Z,6.90
2022-12-09T05:04:15.954Z,6.80
2022-12-09T05:07:02.585Z,6.80
2022-12-09T05:09:48.294Z,6.90
2022-12-09T05:12:34.453Z,6.90
2022-12-09T05:15:21.188Z,7.00
2022-12-09T05:18:07.475Z,6.90
2022-12-09T05:20:53.447Z,6.90
2022-12-09T05:23:40.078Z,7.00
2022-12-09T05:26:25.831Z,7.00
2022-12-09T05:29:15.200Z,7.00
2022-12-09T05:32:03.690Z,7.00
2022-12-09T05:34:50.763Z,6.90
2022-12-09T05:37:36.823Z,7.00
2022-12-09T05:40:23.560Z,7.00
2022-12-09T05:43:09.425Z,7.00
2022-12-09T05:45:56.080Z,7.00
2022-12-09T05:48:42.531Z,7.00
2022-12-09T05:51:30.637Z,7.00
2022-12-09T05:54:16.735Z,6.90
2022-12-09T05:57:04.361Z,6.90
2022-12-09T05:59:50.288Z,6.90
2022-12-09T06:02:37.485Z,6.90
2022-12-09T06:05:23.944Z,6.90
2022-12-09T06:08:10.579Z,7.00
2022-12-09T06:10:56.171Z,7.00
2022-12-09T06:13:42.925Z,6.90
2022-12-09T06:16:29.512Z,6.90
2022-12-09T06:19:16.071Z,6.90
2022-12-09T06:22:02.065Z,6.90
2022-12-09T06:24:51.144Z,6.90
2022-12-09T06:27:41.744Z,6.90
2022-12-09T06:30:27.450Z,6.80
2022-12-09T06:33:44.978Z,6.90
2022-12-09T06:36:19.762Z,6.90
2022-12-09T06:39:10.509Z,6.90
2022-12-09T06:41:57.805Z,6.90
2022-12-09T06:44:44.309Z,6.80
2022-12-09T06:47:31.325Z,6.80
2022-12-09T06:50:18.429Z,6.80
2022-12-09T06:53:04.925Z,6.80
2022-12-09T06:55:51.772Z,6.80
2022-12-09T06:58:37.972Z,6.80
2022-12-09T07:01:26.089Z,6.80
2022-12-09T07:04:14.766Z,6.80
2022-12-09T07:07:00.751Z,6.70
2022-12-09T07:09:47.097Z,6.70
2022-12-09T07:12:33.545Z,6.70
2022-12-09T07:15:19.946Z,6.80
2022-12-09T07:18:08.554Z,6.80
2022-12-09T07:20:54.690Z,6.80
2022-12-09T07:23:41.482Z,6.70
2022-12-09T07:26:30.237Z,6.80
2022-12-09T07:29:16.040Z,6.70
2022-12-09T07:32:02.416Z,6.60
2022-12-09T07:34:49.584Z,6.60
2022-12-09T07:37:36.158Z,6.70
2022-12-09T07:40:22.738Z,6.60
2022-12-09T07:43:08.854Z,6.70
2022-12-09T07:45:55.087Z,6.70
2022-12-09T07:48:41.905Z,6.80
2022-12-09T07:51:29.537Z,6.70
2022-12-09T07:54:18.273Z,6.80
2022-12-09T07:57:04.499Z,6.70
2022-12-09T07:59:51.132Z,6.80
2022-12-09T08:02:37.891Z,6.90
2022-12-09T08:05:24.605Z,6.80
2022-12-09T08:08:11.082Z,6.80
2022-12-09T08:10:57.262Z,6.80
2022-12-09T08:13:43.806Z,6.60
2022-12-09T08:16:30.227Z,6.60
2022-12-09T08:19:17.024Z,6.60
2022-12-09T08:22:03.069Z,6.50
2022-12-09T08:24:49.605Z,6.60
2022-12-09T08:27:36.635Z,6.50
2022-12-09T08:30:22.629Z,6.50
2022-12-09T08:33:09.554Z,6.50
2022-12-09T08:35:55.908Z,6.40
2022-12-09T08:38:42.864Z,6.40
2022-12-09T08:41:36.918Z,6.40
2022-12-09T08:44:24.134Z,6.50
2022-12-09T08:47:10.143Z,6.50
2022-12-09T08:49:57.350Z,6.30
2022-12-09T08:52:45.853Z,6.50
2022-12-09T08:55:31.333Z,6.50
2022-12-09T08:58:17.392Z,6.60
2022-12-09T09:01:03.980Z,6.50
2022-12-09T09:03:50.904Z,6.60
2022-12-09T09:06:42.438Z,6.40
2022-12-09T09:09:29.169Z,6.60
2022-12-09T09:12:15.436Z,6.60
2022-12-09T09:15:01.386Z,6.60
2022-12-09T09:17:51.570Z,6.60
2022-12-09T09:20:38.359Z,6.70
2022-12-09T09:23:24.238Z,6.80
2022-12-09T09:26:13.128Z,6.80
2022-12-09T09:28:59.275Z,6.70
2022-12-09T09:31:48.650Z,6.60
2022-12-09T09:34:34.648Z,6.60
2022-12-09T09:37:22.005Z,6.60
2022-12-09T09:40:10.678Z,6.50
2022-12-09T09:42:58.011Z,6.50
2022-12-09T09:45:45.233Z,6.50
2022-12-09T09:48:35.908Z,6.40
2022-12-09T09:51:22.897Z,6.40
2022-12-09T09:54:13.287Z,6.50
2022-12-09T09:57:12.534Z,6.50
2022-12-09T10:00:18.957Z,6.50
2022-12-09T10:03:30.240Z,6.30
2022-12-09T10:06:38.319Z,6.40
2022-12-09T10:09:51.879Z,6.40
2022-12-09T10:12:48.560Z,6.40
2022-12-09T10:15:55.092Z,6.40
2022-12-09T10:19:09.778Z,6.50
2022-12-09T10:21:57.327Z,6.60
2022-12-09T10:24:59.232Z,6.70
2022-12-09T10:28:16.102Z,6.60
2022-12-09T10:31:03.535Z,6.60
2022-12-09T10:33:49.750Z,6.50
2022-12-09T10:36:39.410Z,6.50
2022-12-09T10:39:25.536Z,6.50
2022-12-09T10:42:35.078Z,6.70
2022-12-09T10:45:22.403Z,6.60
2022-12-09T10:48:21.126Z,6.70
2022-12-09T10:51:23.067Z,6.70
2022-12-09T10:54:17.755Z,6.60
2022-12-09T10:57:07.271Z,6.60
2022-12-09T11:00:01.803Z,6.60
2022-12-09T11:02:55.641Z,6.40
2022-12-09T11:05:43.315Z,6.50
2022-12-09T11:08:30.743Z,6.40
2022-12-09T11:11:18.302Z,6.50
2022-12-09T11:14:22.494Z,6.50
2022-12-09T11:17:21.742Z,6.50
2022-12-09T11:20:33.677Z,6.50
2022-12-09T11:23:21.524Z,6.30
2022-12-09T11:26:23.790Z,6.30
2022-12-09T11:29:19.443Z,6.40
2022-12-09T11:32:05.763Z,6.30
2022-12-09T11:34:52.245Z,6.20
2022-12-09T11:37:39.352Z,6.30
2022-12-09T11:40:27.903Z,6.20
2022-12-09T11:43:14.343Z,6.10
2022-12-09T11:46:00.367Z,6.20
2022-12-09T11:49:05.673Z,6.20
2022-12-09T11:52:06.320Z,6.10
2022-12-09T11:55:15.715Z,6.10
2022-12-09T11:58:06.393Z,6.20
2022-12-09T12:01:01.293Z,6.20
2022-12-09T12:04:01.602Z,6.20
2022-12-09T12:06:48.338Z,6.20
2022-12-09T12:09:54.177Z,6.20
2022-12-09T12:13:02.788Z,6.30
2022-12-09T12:16:07.349Z,6.30
2022-12-09T12:19:30.128Z,6.20
2022-12-09T12:22:33.900Z,6.40
2022-12-09T12:25:46.349Z,6.40
2022-12-09T12:28:35.339Z,6.30
2022-12-09T12:31:42.010Z,6.30
2022-12-09T12:34:39.872Z,6.20
2022-12-09T12:37:55.825Z,6.20
2022-12-09T12:41:09.874Z,6.30
2022-12-09T12:44:22.738Z,6.30
2022-12-09T12:47:28.870Z,6.20
2022-12-09T12:50:33.443Z,6.20
2022-12-09T12:53:47.631Z,6.20
2022-12-09T12:56:45.532Z,6.20
2022-12-09T12:59:40.123Z,6.30
2022-12-09T13:03:09.735Z,6.30
2022-12-09T13:05:57.698Z,6.30
2022-12-09T13:08:57.082Z,6.30
2022-12-09T13:12:00.712Z,6.30
2022-12-09T13:14:53.329Z,6.40
2022-12-09T13:17:41.098Z,6.30
2022-12-09T13:20:41.541Z,6.30
2022-12-09T13:23:51.785Z,6.30
2022-12-09T13:27:12.770Z,6.40
2022-12-09T13:30:16.976Z,6.50
2022-12-09T13:33:02.690Z,6.40
2022-12-09T13:36:16.675Z,6.50
2022-12-09T13:39:02.752Z,6.50
2022-12-09T13:42:06.796Z,6.50
2022-12-09T13:45:05.197Z,6.50
2022-12-09T13:47:53.323Z,6.50
2022-12-09T13:50:51.481Z,6.60
2022-12-09T13:54:15.089Z,6.60
2022-12-09T13:57:11.674Z,6.60
2022-12-09T14:00:04.229Z,6.60
2022-12-09T14:03:22.595Z,6.60
2022-12-09T14:06:23.960Z,6.60
2022-12-09T14:09:37.500Z,6.50
2022-12-09T14:12:26.179Z,6.60
2022-12-09T14:15:25.788Z,6.70
2022-12-09T14:18:33.100Z,6.60
2022-12-09T14:21:19.232Z,6.50
2022-12-09T14:24:08.137Z,6.50
2022-12-09T14:26:54.453Z,6.60
2022-12-09T14:29:54.149Z,6.50
2022-12-09T14:32:57.155Z,6.60
2022-12-09T14:35:48.934Z,6.40
2022-12-09T14:39:23.758Z,6.40
2022-12-09T14:42:26.868Z,6.40
2022-12-09T14:45:35.594Z,6.50
2022-12-09T14:48:25.100Z,6.50
2022-12-09T14:51:26.148Z,6.40
2022-12-09T14:54:34.980Z,6.30
2022-12-09T14:57:25.244Z,6.30
2022-12-09T15:00:31.742Z,6.30
2022-12-09T15:03:45.400Z,6.30
2022-12-09T15:06:28.355Z,6.30
2022-12-09T15:09:16.135Z,6.40
2022-12-09T15:12:08.169Z,6.30
2022-12-09T15:15:17.352Z,6.30
2022-12-09T15:18:09.345Z,6.40
2022-12-09T15:20:57.997Z,6.40
2022-12-09T15:23:45.240Z,6.30
2022-12-09T15:26:33.369Z,6.30
2022-12-09T15:29:23.904Z,6.30
2022-12-09T15:32:25.333Z,6.30
2022-12-09T15:35:23.831Z,6.20
2022-12-09T15:38:10.447Z,6.30
2022-12-09T15:41:17.853Z,6.30
2022-12-09T15:44:08.210Z,6.30
2022-12-09T15:46:57.487Z,6.30
2022-12-09T15:49:53.002Z,6.20
2022-12-09T15:52:57.277Z,6.10
2022-12-09T15:55:50.999Z,6.20
2022-12-09T15:58:42.008Z,6.20
2022-12-09T16:01:32.059Z,6.30
2022-12-09T16:04:23.461Z,6.30
2022-12-09T16:07:13.048Z,6.30
2022-12-09T16:10:02.336Z,6.20
2022-12-09T16:13:08.330Z,6.10
2022-12-09T16:15:56.539Z,6.20
2022-12-09T16:18:50.359Z,6.20
2022-12-09T16:21:36.660Z,6.20
2022-12-09T16:24:23.152Z,6.20
2022-12-09T16:27:12.637Z,6.20
2022-12-09T16:30:20.403Z,6.30
2022-12-09T16:33:21.555Z,6.10
2022-12-09T16:36:10.063Z,6.10
2022-12-09T16:39:08.996Z,6.00
2022-12-09T16:41:58.739Z,6.00
2022-12-09T16:44:44.232Z,6.00
2022-12-09T16:47:32.270Z,6.10
2022-12-09T16:50:18.325Z,6.10
2022-12-09T16:53:13.378Z,6.10
2022-12-09T16:56:02.813Z,6.10
2022-12-09T16:58:48.799Z,6.10
2022-12-09T17:01:38.133Z,6.00
2022-12-09T17:04:28.468Z,6.00
2022-12-09T17:07:15.136Z,6.10
2022-12-09T17:10:01.110Z,6.10
2022-12-09T17:12:47.391Z,6.00
2022-12-09T17:15:33.693Z,5.90
2022-12-09T17:18:19.484Z,5.90
2022-12-09T17:21:11.459Z,6.00
2022-12-09T17:23:58.284Z,6.00
2022-12-09T17:26:44.094Z,6.00
2022-12-09T17:29:30.676Z,6.00
2022-12-09T17:32:19.720Z,5.90
2022-12-09T17:35:12.067Z,5.90
2022-12-09T17:37:58.899Z,5.80
2022-12-09T17:40:45.268Z,5.90
2022-12-09T17:43:32.134Z,6.00
2022-12-09T17:46:18.240Z,5.90
2022-12-09T17:49:04.054Z,5.90
2022-12-09T17:51:50.112Z,5.90
2022-12-09T17:54:36.681Z,5.80
2022-12-09T17:57:22.400Z,5.90
2022-12-09T18:00:09.059Z,5.80
2022-12-09T18:03:01.800Z,5.90
2022-12-09T18:05:47.416Z,5.90
2022-12-09T18:08:33.167Z,5.90
2022-12-09T18:11:19.188Z,5.90
2022-12-09T18:14:06.347Z,5.90
2022-12-09T18:16:52.318Z,5.90
2022-12-09T18:19:38.440Z,5.90
2022-12-09T18:22:24.448Z,5.90
2022-12-09T18:25:10.219Z,5.90
2022-12-09T18:27:56.248Z,5.90
2022-12-09T18:30:42.782Z,5.90
2022-12-09T18:33:29.281Z,5.80
2022-12-09T18:36:19.372Z,5.90
2022-12-09T18:39:06.238Z,5.80
2022-12-09T18:41:52.035Z,5.90
2022-12-09T18:44:37.996Z,5.90
2022-12-09T18:47:24.170Z,5.80
2022-12-09T18:50:11.285Z,5.80
2022-12-09T18:52:56.767Z,5.90
2022-12-09T18:55:42.769Z,5.90
2022-12-09T18:58:57.422Z,5.80
2022-12-09T19:01:39.913Z,5.70
2022-12-09T19:04:29.023Z,5.80
2022-12-09T19:07:14.829Z,5.70
2022-12-09T19:10:00.240Z,5.80
2022-12-09T19:12:48.287Z,5.80
2022-12-09T19:15:36.168Z,5.80
2022-12-09T19:18:21.812Z,5.80
2022-12-09T19:21:12.825Z,5.80
2022-12-09T19:24:00.208Z,5.80
2022-12-09T19:26:46.854Z,5.80
2022-12-09T19:29:32.468Z,5.70
2022-12-09T19:32:44.101Z,5.70
2022-12-09T19:35:24.107Z,5.70
2022-12-09T19:38:09.680Z,5.70
2022-12-09T19:41:00.565Z,5.80
2022-12-09T19:43:47.067Z,5.80
2022-12-09T19:46:34.419Z,5.80
2022-12-09T19:49:21.624Z,5.90
2022-12-09T19:52:07.642Z,5.80
2022-12-09T19:54:53.167Z,5.80
2022-12-09T19:57:39.276Z,5.80
2022-12-09T20:00:25.596Z,5.80
2022-12-09T20:03:11.917Z,5.90
2022-12-09T20:05:58.001Z,5.80
2022-12-09T20:08:44.864Z,5.70
2022-12-09T20:11:34.357Z,5.80
2022-12-09T20:14:20.793Z,5.70
2022-12-09T20:17:06.824Z,5.80
2022-12-09T20:19:52.757Z,5.80
2022-12-09T20:22:38.514Z,5.80
2022-12-09T20:25:24.060Z,5.80
2022-12-09T20:28:09.482Z,5.90
2022-12-09T20:30:55.684Z,5.80
2022-12-09T20:33:42.056Z,5.80
2022-12-09T20:36:31.247Z,5.70
2022-12-09T20:39:19.636Z,5.80
2022-12-09T20:42:05.548Z,5.70
2022-12-09T20:44:51.976Z,5.70
2022-12-09T20:47:38.329Z,5.80
2022-12-09T20:50:25.216Z,5.80
2022-12-09T20:53:11.099Z,5.70
2022-12-09T20:55:58.675Z,5.70
2022-12-09T20:58:46.028Z,5.70
2022-12-09T21:01:34.501Z,5.70
2022-12-09T21:04:20.139Z,5.70
2022-12-09T21:07:05.944Z,5.70
2022-12-09T21:09:52.224Z,5.70
2022-12-09T21:12:38.118Z,5.80
2022-12-09T21:15:24.492Z,5.70
2022-12-09T21:18:11.384Z,5.80
2022-12-09T21:20:57.696Z,5.80
2022-12-09T21:23:44.443Z,5.80
2022-12-09T21:26:30.258Z,5.80
2022-12-09T21:29:16.678Z,5.70
2022-12-09T21:32:02.724Z,5.70
2022-12-09T21:34:49.221Z,5.70
2022-12-09T21:37:37.967Z,5.80
2022-12-09T21:40:24.072Z,5.70
2022-12-09T21:43:11.384Z,5.70
2022-12-09T21:45:58.384Z,5.80
2022-12-09T21:48:45.928Z,5.70
2022-12-09T21:51:35.528Z,5.70
2022-12-09T21:54:21.462Z,5.70
2022-12-09T21:57:07.329Z,5.70
2022-12-09T21:59:53.483Z,5.70
2022-12-09T22:02:39.083Z,5.70
2022-12-09T22:05:24.959Z,5.70
2022-12-09T22:08:11.988Z,5.80
2022-12-09T22:10:58.472Z,5.80
2022-12-09T22:13:44.904Z,5.80
2022-12-09T22:16:34.388Z,5.80
2022-12-09T22:19:21.923Z,5.80
2022-12-09T22:22:09.270Z,5.70
2022-12-09T22:24:55.494Z,5.80
2022-12-09T22:27:41.536Z,5.80
2022-12-09T22:30:27.469Z,5.80
2022-12-09T22:33:13.226Z,5.80
2022-12-09T22:36:04.807Z,5.80
2022-12-09T22:38:50.750Z,5.90
2022-12-09T22:41:36.401Z,5.80
2022-12-09T22:44:21.973Z,5.80
2022-12-09T22:47:09.593Z,5.80
2022-12-09T22:49:56.307Z,5.80
2022-12-09T22:52:42.039Z,5.80
2022-12-09T22:55:27.592Z,5.80
2022-12-09T22:58:14.949Z,5.80
2022-12-09T23:01:01.083Z,5.80
2022-12-09T23:03:48.043Z,5.80
2022-12-09T23:06:36.050Z,5.80
2022-12-09T23:09:24.259Z,5.80
2022-12-09T23:12:09.867Z,5.70
2022-12-09T23:14:56.038Z,5.70
2022-12-09T23:17:41.297Z,5.80
2022-12-09T23:20:27.442Z,5.80
2022-12-09T23:23:14.460Z,5.80
2022-12-09T23:26:05.146Z,5.70
2022-12-09T23:28:53.399Z,5.70
2022-12-09T23:31:39.433Z,5.70
2022-12-09T23:34:25.164Z,5.70
2022-12-09T23:37:10.989Z,5.80
2022-12-09T23:39:57.241Z,5.80
2022-12-09T23:42:43.392Z,5.80
2022-12-09T23:45:29.549Z,5.80
2022-12-09T23:48:15.930Z,5.80
2022-12-09T23:51:15.457Z,5.80
2022-12-09T23:54:07.272Z,5.80
2022-12-09T23:56:53.442Z,5.80
2022-12-09T23:59:39.440Z,5.80
